createdAt,value
2022-11-20T00:01:59.284Z,79.86
2022-11-20T00:04:27.345Z,80.49
2022-11-20T00:06:55.405Z,80.44
2022-11-20T00:09:23.664Z,79.64
2022-11-20T00:11:53.269Z,78.78
2022-11-20T00:14:21.574Z,79.34
2022-11-20T00:16:49.621Z,79.72
2022-11-20T00:19:18.286Z,80.59
2022-11-20T00:21:46.663Z,80.15
2022-11-20T00:24:16.007Z,79.43
2022-11-20T00:26:44.020Z,79.05
2022-11-20T00:29:13.762Z,78.85
2022-11-20T00:31:41.819Z,79.17
2022-11-20T00:34:11.146Z,79.56
2022-11-20T00:36:39.206Z,80.11
2022-11-20T00:39:07.392Z,79.76
2022-11-20T00:41:35.405Z,80.16
2022-11-20T00:44:03.695Z,80.49
2022-11-20T00:46:33.130Z,79.43
2022-11-20T00:49:01.252Z,78.97
2022-11-20T00:51:29.715Z,78.91
2022-11-20T00:53:58.470Z,79.49
2022-11-20T00:56:26.633Z,79.53
2022-11-20T00:58:55.208Z,79.58
2022-11-20T01:01:25.246Z,79.48
2022-11-20T01:03:57.281Z,80.56
2022-11-20T01:06:26.865Z,80.57
2022-11-20T01:08:56.230Z,80.52
2022-11-20T01:11:25.732Z,80.26
2022-11-20T01:13:55.535Z,80.36
2022-11-20T01:16:25.870Z,81.13
2022-11-20T01:18:57.913Z,81.44
2022-11-20T01:21:27.239Z,80.97
2022-11-20T01:23:55.839Z,81.30
2022-11-20T01:26:25.469Z,81.57
2022-11-20T01:28:54.429Z,82.21
2022-11-20T01:31:23.773Z,82.48
2022-11-20T01:33:53.424Z,81.46
2022-11-20T01:36:24.802Z,81.96
2022-11-20T01:38:53.807Z,82.51
2022-11-20T01:41:36.388Z,82.66
2022-11-20T01:44:05.533Z,82.29
2022-11-20T01:46:34.439Z,82.65
2022-11-20T01:49:05.312Z,82.73
2022-11-20T01:51:40.266Z,83.67
2022-11-20T01:54:10.908Z,83.38
2022-11-20T01:56:41.288Z,83.83
2022-11-20T01:59:10.824Z,84.33
2022-11-20T02:01:40.253Z,85.11
2022-11-20T02:04:10.111Z,85.42
2022-11-20T02:06:43.317Z,85.17
2022-11-20T02:09:11.654Z,85.58
2022-11-20T02:11:39.820Z,86.43
2022-11-20T02:14:07.021Z,85.40
2022-11-20T02:16:40.220Z,84.84
2022-11-20T02:19:12.376Z,84.85
2022-11-20T02:21:45.543Z,84.15
2022-11-20T02:24:16.413Z,84.74
2022-11-20T02:26:49.639Z,85.02
2022-11-20T02:29:20.298Z,84.91
2022-11-20T02:31:48.738Z,85.28
2022-11-20T02:34:16.831Z,86.29
2022-11-20T02:36:44.980Z,85.34
2022-11-20T02:39:17.826Z,83.77
2022-11-20T02:41:46.695Z,84.50
2022-11-20T02:44:14.738Z,84.18
2022-11-20T02:46:43.110Z,83.59
2022-11-20T02:49:11.114Z,83.12
2022-11-20T02:51:39.172Z,83.07
2022-11-20T02:54:07.161Z,83.73
2022-11-20T02:56:36.579Z,83.04
2022-11-20T02:59:05.575Z,84.14
2022-11-20T03:01:33.695Z,84.46
2022-11-20T03:04:01.733Z,83.44
2022-11-20T03:06:29.899Z,83.14
2022-11-20T03:08:57.899Z,83.35
2022-11-20T03:11:26.100Z,82.80
2022-11-20T03:13:55.497Z,82.29
2022-11-20T03:16:24.738Z,82.21
2022-11-20T03:18:54.820Z,82.69
2022-11-20T03:21:22.990Z,81.97
2022-11-20T03:23:50.991Z,81.70
2022-11-20T03:26:20.451Z,81.20
2022-11-20T03:28:51.397Z,81.16
2022-11-20T03:31:22.709Z,81.41
2022-11-20T03:33:50.899Z,81.35
2022-11-20T03:36:20.966Z,81.78
2022-11-20T03:38:49.548Z,80.99
2022-11-20T03:41:20.681Z,81.25
2022-11-20T03:43:52.122Z,82.07
2022-11-20T03:46:21.851Z,82.20
2022-11-20T03:48:51.933Z,82.48
2022-11-20T03:51:21.921Z,82.03
2022-11-20T03:53:50.961Z,83.11
2022-11-20T03:56:21.270Z,83.65
2022-11-20T03:58:49.364Z,83.62
2022-11-20T04:01:19.049Z,83.14
2022-11-20T04:03:48.542Z,82.86
2022-11-20T04:06:18.436Z,83.17
2022-11-20T04:08:51.008Z,82.95
2022-11-20T04:11:23.617Z,83.37
2022-11-20T04:13:53.363Z,83.40
2022-11-20T04:16:22.164Z,83.85
2022-11-20T04:18:55.338Z,84.94
2022-11-20T04:21:23.665Z,84.44
2022-11-20T04:23:51.761Z,84.86
2022-11-20T04:26:19.835Z,85.08
2022-11-20T04:28:49.009Z,85.62
2022-11-20T04:31:18.398Z,85.10
2022-11-20T04:33:46.682Z,85.27
2022-11-20T04:36:17.679Z,84.81
2022-11-20T04:38:46.291Z,85.46
2022-11-20T04:41:17.342Z,84.92
2022-11-20T04:43:48.574Z,85.16
2022-11-20T04:46:17.013Z,84.26
2022-11-20T04:48:45.241Z,84.63
2022-11-20T04:51:13.750Z,85.03
2022-11-20T04:53:43.919Z,84.73
2022-11-20T04:56:13.626Z,84.75
2022-11-20T04:58:42.182Z,85.09
2022-11-20T05:01:12.740Z,86.16
2022-11-20T05:03:43.042Z,86.30
2022-11-20T05:06:12.272Z,86.11
2022-11-20T05:08:40.271Z,86.58
2022-11-20T05:11:11.201Z,86.10
2022-11-20T05:13:39.415Z,86.51
2022-11-20T05:16:09.912Z,86.87
2022-11-20T05:18:39.135Z,86.94
2022-11-20T05:21:07.865Z,86.56
2022-11-20T05:23:36.472Z,86.53
2022-11-20T05:26:05.616Z,86.33
2022-11-20T05:28:35.230Z,86.92
2022-11-20T05:31:08.038Z,84.42
2022-11-20T05:33:36.838Z,85.30
2022-11-20T05:36:05.940Z,86.14
2022-11-20T05:38:34.234Z,87.50
2022-11-20T05:41:06.697Z,88.97
2022-11-20T05:43:36.805Z,89.96
2022-11-20T05:46:04.897Z,90.15
2022-11-20T05:48:33.023Z,91.88
2022-11-20T05:51:01.250Z,92.97
2022-11-20T05:53:29.304Z,93.57
2022-11-20T05:56:01.141Z,94.11
2022-11-20T05:58:29.609Z,93.54
2022-11-20T06:01:05.746Z,93.03
2022-11-20T06:03:33.978Z,93.20
2022-11-20T06:06:05.695Z,92.40
2022-11-20T06:08:34.041Z,92.55
2022-11-20T06:11:05.958Z,93.06
2022-11-20T06:13:36.896Z,93.23
2022-11-20T06:16:09.124Z,92.61
2022-11-20T06:18:37.141Z,94.07
2022-11-20T06:21:06.836Z,94.71
2022-11-20T06:23:35.772Z,95.04
2022-11-20T06:26:05.099Z,95.29
2022-11-20T06:28:33.243Z,95.41
2022-11-20T06:31:01.304Z,94.54
2022-11-20T06:33:31.251Z,94.17
2022-11-20T06:36:02.599Z,94.41
2022-11-20T06:38:32.882Z,94.38
2022-11-20T06:41:00.948Z,95.23
2022-11-20T06:43:31.197Z,94.70
2022-11-20T06:46:00.374Z,92.73
2022-11-20T06:48:30.527Z,93.51
2022-11-20T06:51:00.718Z,95.50
2022-11-20T06:53:28.724Z,96.00
2022-11-20T06:55:57.982Z,95.90
2022-11-20T06:58:28.205Z,94.94
2022-11-20T07:00:56.321Z,95.55
2022-11-20T07:03:24.373Z,96.48
2022-11-20T07:05:53.822Z,95.92
2022-11-20T07:08:21.865Z,95.41
2022-11-20T07:10:49.857Z,94.96
2022-11-20T07:13:17.886Z,94.56
2022-11-20T07:15:46.162Z,94.51
2022-11-20T07:18:14.236Z,94.04
2022-11-20T07:20:42.291Z,93.98
2022-11-20T07:23:11.702Z,94.77
2022-11-20T07:25:39.757Z,93.91
2022-11-20T07:28:07.808Z,93.60
2022-11-20T07:30:35.843Z,94.57
2022-11-20T07:33:03.884Z,94.86
2022-11-20T07:35:31.881Z,94.92
2022-11-20T07:38:00.052Z,94.45
2022-11-20T07:40:29.631Z,94.51
2022-11-20T07:42:57.926Z,94.76
2022-11-20T07:45:26.778Z,94.83
2022-11-20T07:47:54.826Z,93.91
2022-11-20T07:50:23.038Z,93.20
2022-11-20T07:52:51.647Z,93.95
2022-11-20T07:55:19.684Z,94.28
2022-11-20T07:57:56.575Z,93.44
2022-11-20T08:00:25.124Z,93.34
2022-11-20T08:02:53.234Z,94.24
2022-11-20T08:05:21.260Z,93.83
2022-11-20T08:07:49.423Z,94.91
2022-11-20T08:10:18.239Z,94.53
2022-11-20T08:13:04.667Z,93.32
2022-11-20T08:15:34.201Z,94.56
2022-11-20T08:18:29.316Z,93.84
2022-11-20T08:20:51.819Z,94.02
2022-11-20T08:23:19.840Z,93.64
2022-11-20T08:25:51.802Z,93.67
2022-11-20T08:28:22.330Z,93.07
2022-11-20T08:30:52.256Z,92.95
2022-11-20T08:33:20.518Z,93.57
2022-11-20T08:35:48.567Z,93.40
2022-11-20T08:38:16.626Z,93.62
2022-11-20T08:41:05.317Z,93.25
2022-11-20T08:43:33.357Z,92.63
2022-11-20T08:46:02.996Z,92.43
2022-11-20T08:48:31.074Z,92.33
2022-11-20T08:51:00.632Z,93.39
2022-11-20T08:53:28.805Z,93.24
2022-11-20T08:55:56.940Z,92.49
2022-11-20T08:58:25.061Z,92.40
2022-11-20T09:00:53.175Z,93.08
2022-11-20T09:03:22.570Z,93.39
2022-11-20T09:05:50.747Z,93.10
2022-11-20T09:08:18.791Z,93.07
2022-11-20T09:10:46.826Z,91.68
2022-11-20T09:13:14.880Z,92.23
2022-11-20T09:15:42.899Z,91.52
2022-11-20T09:18:10.966Z,91.24
2022-11-20T09:20:40.441Z,89.69
2022-11-20T09:23:08.501Z,90.55
2022-11-20T09:25:36.617Z,91.30
2022-11-20T09:28:04.904Z,92.15
2022-11-20T09:30:33.020Z,91.88
2022-11-20T09:33:01.111Z,92.23
2022-11-20T09:35:29.272Z,92.80
2022-11-20T09:37:58.683Z,93.16
2022-11-20T09:40:29.987Z,93.98
2022-11-20T09:43:00.924Z,93.77
2022-11-20T09:45:40.408Z,93.49
2022-11-20T09:48:20.758Z,93.78
2022-11-20T09:50:53.270Z,93.34
2022-11-20T09:53:29.553Z,93.83
2022-11-20T09:55:57.980Z,93.66
2022-11-20T09:58:33.406Z,93.46
2022-11-20T10:01:06.209Z,93.38
2022-11-20T10:03:42.909Z,94.87
2022-11-20T10:06:14.993Z,93.89
2022-11-20T10:08:47.686Z,92.90
2022-11-20T10:11:20.353Z,93.30
2022-11-20T10:13:54.902Z,92.42
2022-11-20T10:16:28.537Z,92.15
2022-11-20T10:19:05.011Z,90.68
2022-11-20T10:21:38.398Z,91.90
2022-11-20T10:24:27.177Z,92.91
2022-11-20T10:27:01.985Z,92.26
2022-11-20T10:29:34.194Z,91.74
2022-11-20T10:32:04.608Z,90.90
2022-11-20T10:34:37.144Z,90.61
2022-11-20T10:37:11.245Z,91.10
2022-11-20T10:39:44.745Z,90.69
2022-11-20T10:42:14.111Z,90.50
2022-11-20T10:45:06.600Z,90.57
2022-11-20T10:47:35.220Z,91.43
2022-11-20T10:50:06.172Z,90.67
2022-11-20T10:52:39.666Z,90.84
2022-11-20T10:55:19.785Z,91.10
2022-11-20T10:57:54.948Z,91.01
2022-11-20T11:00:23.267Z,91.23
2022-11-20T11:02:52.565Z,90.34
2022-11-20T11:05:28.210Z,89.75
2022-11-20T11:07:58.521Z,90.42
2022-11-20T11:10:34.002Z,88.74
2022-11-20T11:13:02.292Z,89.48
2022-11-20T11:15:31.730Z,89.76
2022-11-20T11:17:59.949Z,90.51
2022-11-20T11:20:28.487Z,90.18
2022-11-20T11:22:59.118Z,89.77
2022-11-20T11:25:31.018Z,89.83
2022-11-20T11:28:01.202Z,90.17
2022-11-20T11:30:33.023Z,90.97
2022-11-20T11:33:09.140Z,90.68
2022-11-20T11:35:51.032Z,92.01
2022-11-20T11:38:24.830Z,92.18
2022-11-20T11:40:55.960Z,91.93
2022-11-20T11:43:43.853Z,92.63
2022-11-20T11:46:27.071Z,92.63
2022-11-20T11:48:59.883Z,92.57
2022-11-20T11:51:33.258Z,92.41
2022-11-20T11:54:02.905Z,91.43
2022-11-20T11:56:33.458Z,91.80
2022-11-20T11:59:03.474Z,91.06
2022-11-20T12:01:35.274Z,91.78
2022-11-20T12:04:06.875Z,90.69
2022-11-20T12:06:36.964Z,90.40
2022-11-20T12:09:07.281Z,90.88
2022-11-20T12:11:40.760Z,91.10
2022-11-20T12:14:15.751Z,91.25
2022-11-20T12:16:44.123Z,90.96
2022-11-20T12:19:14.874Z,90.58
2022-11-20T12:21:51.587Z,90.58
2022-11-20T12:24:32.185Z,90.73
2022-11-20T12:27:10.708Z,91.54
2022-11-20T12:29:45.722Z,91.17
2022-11-20T12:32:39.778Z,90.60
2022-11-20T12:35:14.151Z,91.48
2022-11-20T12:37:56.272Z,91.53
2022-11-20T12:40:40.147Z,90.92
2022-11-20T12:43:47.012Z,90.94
2022-11-20T12:46:54.627Z,91.16
2022-11-20T12:49:32.691Z,91.05
2022-11-20T12:52:13.102Z,91.62
2022-11-20T12:55:15.051Z,90.91
2022-11-20T12:57:57.902Z,90.69
2022-11-20T13:00:28.414Z,90.85
2022-11-20T13:03:15.072Z,89.85
2022-11-20T13:05:51.093Z,89.80
2022-11-20T13:08:23.943Z,89.94
2022-11-20T13:11:02.753Z,89.11
2022-11-20T13:13:38.004Z,88.99
2022-11-20T13:16:14.646Z,88.47
2022-11-20T13:18:46.636Z,87.22
2022-11-20T13:21:20.464Z,87.39
2022-11-20T13:23:49.041Z,87.81
2022-11-20T13:26:20.974Z,87.83
2022-11-20T13:28:50.778Z,87.34
2022-11-20T13:31:33.966Z,87.53
2022-11-20T13:34:04.958Z,88.37
2022-11-20T13:36:36.172Z,88.20
2022-11-20T13:39:05.882Z,89.07
2022-11-20T13:41:37.104Z,88.50
2022-11-20T13:44:17.064Z,89.50
2022-11-20T13:46:48.683Z,90.02
2022-11-20T13:49:21.594Z,91.10
2022-11-20T13:51:53.173Z,90.70
2022-11-20T13:54:53.228Z,90.64
2022-11-20T13:57:41.703Z,90.26
2022-11-20T14:00:14.988Z,90.98
2022-11-20T14:02:45.649Z,91.38
2022-11-20T14:05:23.715Z,90.04
2022-11-20T14:07:54.023Z,90.59
2022-11-20T14:10:31.136Z,90.91
2022-11-20T14:13:01.060Z,90.72
2022-11-20T14:15:32.450Z,91.31
2022-11-20T14:18:14.705Z,91.90
2022-11-20T14:20:45.161Z,92.12
2022-11-20T14:23:16.330Z,92.10
2022-11-20T14:25:46.066Z,91.95
2022-11-20T14:28:24.924Z,93.31
2022-11-20T14:30:54.522Z,93.64
2022-11-20T14:33:26.406Z,93.25
2022-11-20T14:35:57.135Z,93.80
2022-11-20T14:38:30.404Z,92.50
2022-11-20T14:41:09.277Z,92.80
2022-11-20T14:43:40.473Z,93.81
2022-11-20T14:46:11.068Z,93.77
2022-11-20T14:48:43.957Z,93.79
2022-11-20T14:51:13.479Z,94.50
2022-11-20T14:53:46.807Z,95.23
2022-11-20T14:56:24.310Z,95.33
2022-11-20T14:58:59.828Z,95.33
2022-11-20T15:01:31.491Z,96.08
2022-11-20T15:04:07.749Z,96.69
2022-11-20T15:06:41.398Z,96.75
2022-11-20T15:09:18.526Z,96.96
2022-11-20T15:11:56.027Z,97.24
2022-11-20T15:14:25.568Z,97.35
2022-11-20T15:16:55.619Z,98.05
2022-11-20T15:19:28.084Z,98.53
2022-11-20T15:21:57.831Z,98.21
2022-11-20T15:24:26.817Z,98.69
2022-11-20T15:26:57.902Z,99.17
2022-11-20T15:29:26.951Z,99.36
2022-11-20T15:31:57.869Z,99.57
2022-11-20T15:34:31.261Z,100.00
2022-11-20T15:37:00.850Z,100.00
2022-11-20T15:39:29.483Z,100.00
2022-11-20T15:41:59.255Z,100.00
2022-11-20T15:44:27.857Z,100.00
2022-11-20T15:46:57.175Z,100.00
2022-11-20T15:49:27.869Z,100.00
2022-11-20T15:51:58.326Z,100.00
2022-11-20T15:54:30.875Z,100.00
2022-11-20T15:57:02.267Z,100.00
2022-11-20T15:59:31.453Z,100.00
2022-11-20T16:02:00.915Z,100.00
2022-11-20T16:04:31.988Z,100.00
2022-11-20T16:07:00.849Z,100.00
2022-11-20T16:09:30.057Z,100.00
2022-11-20T16:12:00.712Z,100.00
2022-11-20T16:14:47.791Z,100.00
2022-11-20T16:17:36.885Z,100.00
2022-11-20T16:20:08.775Z,100.00
2022-11-20T16:22:39.620Z,100.00
2022-11-20T16:27:59.688Z,100.00
2022-11-20T16:30:42.459Z,100.00
2022-11-20T16:33:14.361Z,100.00
2022-11-20T16:35:46.568Z,100.00
2022-11-20T16:38:16.199Z,100.00
2022-11-20T16:40:48.379Z,100.00
2022-11-20T16:43:18.570Z,100.00
2022-11-20T16:45:50.034Z,100.00
2022-11-20T16:48:19.364Z,100.00
2022-11-20T16:50:54.308Z,100.00
2022-11-20T16:53:27.678Z,100.00
2022-11-20T16:55:57.339Z,100.00
2022-11-20T16:58:27.206Z,100.00
2022-11-20T17:00:57.019Z,100.00
2022-11-20T17:03:26.325Z,100.00
2022-11-20T17:06:02.780Z,100.00
2022-11-20T17:08:45.114Z,100.00
2022-11-20T17:11:20.277Z,100.00
2022-11-20T17:13:51.405Z,100.00
2022-11-20T17:16:24.768Z,100.00
2022-11-20T17:19:03.035Z,100.00
2022-11-20T17:21:50.811Z,100.00
2022-11-20T17:24:21.702Z,100.00
2022-11-20T17:26:53.088Z,100.00
2022-11-20T17:29:25.292Z,100.00
2022-11-20T17:31:56.334Z,100.00
2022-11-20T17:34:29.595Z,100.00
2022-11-20T17:37:06.075Z,100.00
2022-11-20T17:39:38.287Z,100.00
2022-11-20T17:42:25.510Z,100.00
2022-11-20T17:44:55.522Z,100.00
2022-11-20T17:47:24.945Z,100.00
2022-11-20T17:49:56.018Z,100.00
2022-11-20T17:52:26.560Z,100.00
2022-11-20T17:54:58.165Z,100.00
2022-11-20T17:57:44.377Z,100.00
2022-11-20T18:00:18.244Z,100.00
2022-11-20T18:02:50.146Z,100.00
2022-11-20T18:05:20.979Z,100.00
2022-11-20T18:07:57.388Z,100.00
2022-11-20T18:10:27.672Z,100.00
2022-11-20T18:12:59.647Z,100.00
2022-11-20T18:15:28.957Z,100.00
2022-11-20T18:17:58.032Z,100.00
2022-11-20T18:20:36.677Z,100.00
2022-11-20T18:23:11.619Z,100.00
2022-11-20T18:25:40.834Z,100.00
2022-11-20T18:28:11.385Z,100.00
2022-11-20T18:30:41.231Z,100.00
2022-11-20T18:33:10.356Z,100.00
2022-11-20T18:35:43.049Z,100.00
2022-11-20T18:38:18.340Z,100.00
2022-11-20T18:40:48.566Z,100.00
2022-11-20T18:43:36.947Z,100.00
2022-11-20T18:46:06.908Z,100.00
2022-11-20T18:48:36.605Z,100.00
2022-11-20T18:51:12.509Z,100.00
2022-11-20T18:53:47.328Z,100.00
2022-11-20T18:56:19.874Z,100.00
2022-11-20T18:59:01.515Z,100.00
2022-11-20T19:01:33.520Z,100.00
2022-11-20T19:04:11.995Z,100.00
2022-11-20T19:06:42.913Z,100.00
2022-11-20T19:09:21.191Z,100.00
2022-11-20T19:12:00.120Z,100.00
2022-11-20T19:14:30.242Z,100.00
2022-11-20T19:17:00.902Z,100.00
2022-11-20T19:19:31.029Z,100.00
2022-11-20T19:22:01.007Z,100.00
2022-11-20T19:24:33.282Z,100.00
2022-11-20T19:27:03.351Z,100.00
2022-11-20T19:29:32.952Z,100.00
2022-11-20T19:32:04.978Z,100.00
2022-11-20T19:34:35.055Z,100.00
2022-11-20T19:37:05.954Z,100.00
2022-11-20T19:39:38.779Z,100.00
2022-11-20T19:42:08.263Z,100.00
2022-11-20T19:44:39.546Z,100.00
2022-11-20T19:47:14.231Z,100.00
2022-11-20T19:49:44.008Z,100.00
2022-11-20T19:52:13.870Z,100.00
2022-11-20T19:54:46.920Z,100.00
2022-11-20T19:57:16.696Z,100.00
2022-11-20T19:59:46.138Z,100.00
2022-11-20T20:02:16.518Z,100.00
2022-11-20T20:04:47.439Z,100.00
2022-11-20T20:07:17.692Z,100.00
2022-11-20T20:09:49.207Z,100.00
2022-11-20T20:12:18.633Z,100.00
2022-11-20T20:14:49.005Z,100.00
2022-11-20T20:17:20.153Z,100.00
2022-11-20T20:19:51.348Z,100.00
2022-11-20T20:22:20.919Z,100.00
2022-11-20T20:24:53.847Z,100.00
2022-11-20T20:27:37.312Z,100.00
2022-11-20T20:30:14.029Z,100.00
2022-11-20T20:32:43.303Z,100.00
2022-11-20T20:35:14.416Z,100.00
2022-11-20T20:37:44.231Z,100.00
2022-11-20T20:40:16.259Z,100.00
2022-11-20T20:42:45.988Z,100.00
2022-11-20T20:45:15.761Z,100.00
2022-11-20T20:47:45.064Z,100.00
2022-11-20T20:50:14.641Z,100.00
2022-11-20T20:52:44.384Z,100.00
2022-11-20T20:55:14.638Z,100.00
2022-11-20T20:57:46.526Z,100.00
2022-11-20T21:00:17.615Z,100.00
2022-11-20T21:02:47.347Z,100.00
2022-11-20T21:05:17.851Z,100.00
2022-11-20T21:08:00.644Z,100.00
2022-11-20T21:10:31.489Z,100.00
2022-11-20T21:13:01.056Z,100.00
2022-11-20T21:15:34.924Z,100.00
2022-11-20T21:18:04.339Z,100.00
2022-11-20T21:20:50.405Z,100.00
2022-11-20T21:23:20.791Z,100.00
2022-11-20T21:25:53.791Z,100.00
2022-11-20T21:28:24.419Z,100.00
2022-11-20T21:30:53.449Z,100.00
2022-11-20T21:33:22.180Z,100.00
2022-11-20T21:35:50.415Z,100.00
2022-11-20T21:38:19.311Z,100.00
2022-11-20T21:40:48.068Z,100.00
2022-11-20T21:43:18.320Z,100.00
2022-11-20T21:45:46.575Z,100.00
2022-11-20T21:48:14.935Z,100.00
2022-11-20T21:50:43.389Z,100.00
2022-11-20T21:53:11.596Z,100.00
2022-11-20T21:55:39.820Z,100.00
2022-11-20T21:58:07.932Z,100.00
2022-11-20T22:00:37.592Z,100.00
2022-11-20T22:03:06.340Z,100.00
2022-11-20T22:05:34.553Z,100.00
2022-11-20T22:08:03.040Z,100.00
2022-11-20T22:10:31.358Z,100.00
2022-11-20T22:13:19.660Z,100.00
2022-11-20T22:16:00.210Z,100.00
2022-11-20T22:18:29.080Z,100.00
2022-11-20T22:20:57.352Z,100.00
2022-11-20T22:23:25.570Z,100.00
2022-11-20T22:25:53.642Z,100.00
2022-11-20T22:28:21.701Z,100.00
2022-11-20T22:30:51.317Z,100.00
2022-11-20T22:33:19.335Z,100.00
2022-11-20T22:35:50.980Z,100.00
2022-11-20T22:38:19.020Z,100.00
2022-11-20T22:40:48.637Z,100.00
2022-11-20T22:43:16.670Z,100.00
2022-11-20T22:45:45.723Z,100.00
2022-11-20T22:48:15.157Z,100.00
2022-11-20T22:50:43.249Z,100.00
2022-11-20T22:53:11.340Z,100.00
2022-11-20T22:55:39.408Z,100.00
2022-11-20T22:58:10.295Z,100.00
2022-11-20T23:00:38.488Z,100.00
2022-11-20T23:03:06.600Z,100.00
2022-11-20T23:05:36.068Z,100.00
2022-11-20T23:08:04.141Z,100.00
2022-11-20T23:10:32.312Z,100.00
2022-11-20T23:13:00.412Z,100.00
2022-11-20T23:15:29.820Z,100.00
2022-11-20T23:17:57.931Z,100.00
2022-11-20T23:20:26.075Z,100.00
2022-11-20T23:22:55.552Z,100.00
2022-11-20T23:25:23.560Z,100.00
2022-11-20T23:27:51.731Z,100.00
2022-11-20T23:30:20.025Z,100.00
2022-11-20T23:32:48.080Z,100.00
2022-11-20T23:35:16.386Z,100.00
2022-11-20T23:37:44.473Z,100.00
2022-11-20T23:40:27.887Z,100.00
2022-11-20T23:43:13.400Z,100.00
2022-11-20T23:45:43.216Z,100.00
2022-11-20T23:48:19.907Z,100.00
2022-11-20T23:50:48.022Z,100.00
2022-11-20T23:53:16.735Z,100.00
2022-11-20T23:55:47.860Z,100.00
2022-11-20T23:58:16.314Z,100.00
